createdAt,value
2022-12-25T00:02:17.638Z,47.83
2022-12-25T00:04:47.027Z,45.97
2022-12-25T00:07:15.006Z,55.17
2022-12-25T00:09:43.070Z,49.47
2022-12-25T00:12:11.097Z,46.40
2022-12-25T00:14:39.047Z,49.60
2022-12-25T00:17:07.089Z,45.03
2022-12-25T00:19:35.194Z,46.67
2022-12-25T00:22:04.505Z,45.80
2022-12-25T00:24:32.518Z,43.77
2022-12-25T00:27:00.680Z,39.90
2022-12-25T00:29:28.697Z,42.03
2022-12-25T00:31:56.754Z,41.23
2022-12-25T00:34:24.977Z,41.23
2022-12-25T00:36:53.117Z,43.10
2022-12-25T00:39:22.483Z,41.23
2022-12-25T00:42:08.130Z,37.20
2022-12-25T00:44:36.356Z,42.17
2022-12-25T00:47:04.789Z,34.13
2022-12-25T00:49:32.899Z,41.23
2022-12-25T00:52:00.873Z,40.47
2022-12-25T00:54:30.438Z,40.43
2022-12-25T00:56:58.436Z,37.70
2022-12-25T00:59:26.383Z,35.60
2022-12-25T01:01:54.458Z,36.20
2022-12-25T01:04:22.507Z,37.03
2022-12-25T01:06:50.461Z,39.67
2022-12-25T01:09:35.744Z,40.17
2022-12-25T01:12:05.242Z,39.93
2022-12-25T01:14:33.237Z,36.57
2022-12-25T01:17:01.208Z,38.30
2022-12-25T01:19:29.318Z,36.60
2022-12-25T01:21:57.318Z,39.43
2022-12-25T01:24:25.260Z,34.10
2022-12-25T01:26:54.479Z,32.43
2022-12-25T01:29:23.793Z,35.33
2022-12-25T01:31:51.940Z,38.03
2022-12-25T01:34:19.943Z,36.37
2022-12-25T01:36:47.891Z,41.53
2022-12-25T01:39:15.871Z,32.83
2022-12-25T01:41:43.796Z,36.90
2022-12-25T01:44:44.980Z,40.93
2022-12-25T01:47:16.231Z,35.73
2022-12-25T01:49:47.435Z,42.33
2022-12-25T01:52:23.836Z,38.40
2022-12-25T01:54:56.227Z,42.87
2022-12-25T01:57:28.196Z,39.40
2022-12-25T01:59:57.335Z,40.67
2022-12-25T02:02:28.158Z,43.80
2022-12-25T02:05:01.202Z,43.87
2022-12-25T02:07:33.686Z,47.57
2022-12-25T02:10:01.723Z,44.23
2022-12-25T02:12:31.990Z,45.67
2022-12-25T02:15:05.812Z,43.93
2022-12-25T02:17:40.731Z,45.03
2022-12-25T02:20:44.938Z,50.67
2022-12-25T02:23:48.896Z,48.67
2022-12-25T02:26:29.481Z,46.73
2022-12-25T02:29:04.177Z,50.80
2022-12-25T02:31:39.228Z,44.70
2022-12-25T02:34:14.240Z,39.33
2022-12-25T02:36:47.098Z,46.27
2022-12-25T02:39:39.899Z,42.20
2022-12-25T02:42:13.557Z,45.63
2022-12-25T02:45:04.038Z,45.73
2022-12-25T02:47:50.054Z,46.30
2022-12-25T02:50:35.094Z,56.13
2022-12-25T02:53:22.674Z,54.50
2022-12-25T02:56:08.897Z,47.60
2022-12-25T02:58:58.293Z,49.93
2022-12-25T03:02:04.512Z,52.33
2022-12-25T03:04:51.369Z,50.77
2022-12-25T03:07:22.603Z,51.23
2022-12-25T03:10:20.513Z,65.50
2022-12-25T03:12:53.244Z,57.97
2022-12-25T03:15:39.806Z,64.33
2022-12-25T03:18:13.489Z,60.00
2022-12-25T03:20:59.015Z,62.03
2022-12-25T03:23:48.798Z,48.13
2022-12-25T03:26:34.441Z,55.03
2022-12-25T03:29:02.578Z,51.33
2022-12-25T03:31:39.790Z,54.60
2022-12-25T03:34:44.547Z,58.60
2022-12-25T03:37:41.331Z,46.30
2022-12-25T03:40:35.526Z,52.30
2022-12-25T03:43:32.095Z,57.20
2022-12-25T03:46:23.864Z,68.63
2022-12-25T03:49:12.663Z,55.50
2022-12-25T03:52:02.080Z,60.50
2022-12-25T03:54:51.792Z,64.93
2022-12-25T03:57:37.267Z,59.53
2022-12-25T04:00:24.022Z,65.83
2022-12-25T04:03:09.620Z,51.10
2022-12-25T04:05:55.416Z,56.13
2022-12-25T04:08:42.028Z,57.80
2022-12-25T04:11:27.665Z,70.20
2022-12-25T04:14:13.248Z,59.20
2022-12-25T04:16:58.601Z,56.07
2022-12-25T04:19:44.170Z,56.27
2022-12-25T04:22:29.759Z,71.20
2022-12-25T04:25:16.445Z,50.77
2022-12-25T04:28:02.175Z,63.73
2022-12-25T04:30:47.867Z,56.80
2022-12-25T04:33:33.403Z,77.97
2022-12-25T04:36:10.443Z,62.97
2022-12-25T04:38:39.681Z,57.23
2022-12-25T04:41:10.256Z,68.23
2022-12-25T04:43:38.268Z,70.43
2022-12-25T04:46:07.053Z,64.67
2022-12-25T04:48:37.069Z,59.23
2022-12-25T04:51:12.995Z,70.17
2022-12-25T04:53:40.958Z,55.87
2022-12-25T04:56:10.574Z,72.00
2022-12-25T04:58:38.543Z,54.23
2022-12-25T05:01:06.857Z,56.00
2022-12-25T05:03:35.603Z,63.73
2022-12-25T05:06:04.442Z,58.00
2022-12-25T05:08:33.490Z,49.70
2022-12-25T05:11:02.033Z,65.03
2022-12-25T05:13:31.350Z,66.50
2022-12-25T05:15:59.437Z,71.23
2022-12-25T05:18:27.627Z,55.37
2022-12-25T05:20:55.663Z,74.80
2022-12-25T05:23:24.131Z,61.93
2022-12-25T05:25:52.103Z,66.90
2022-12-25T05:28:20.103Z,60.83
2022-12-25T05:30:50.077Z,63.80
2022-12-25T05:33:18.015Z,66.13
2022-12-25T05:35:45.921Z,58.10
2022-12-25T05:38:13.840Z,57.77
2022-12-25T05:40:41.869Z,53.07
2022-12-25T05:43:10.122Z,58.87
2022-12-25T05:45:38.252Z,53.50
2022-12-25T05:48:07.914Z,57.40
2022-12-25T05:50:38.638Z,51.30
2022-12-25T05:53:08.570Z,48.20
2022-12-25T05:55:37.421Z,53.80
2022-12-25T05:58:05.729Z,53.00
2022-12-25T06:00:34.169Z,60.10
2022-12-25T06:03:02.404Z,60.07
2022-12-25T06:05:32.209Z,60.80
2022-12-25T06:08:00.165Z,49.50
2022-12-25T06:10:28.155Z,61.23
2022-12-25T06:12:56.125Z,55.87
2022-12-25T06:15:24.077Z,55.63
2022-12-25T06:17:52.088Z,76.83
2022-12-25T06:20:20.358Z,58.50
2022-12-25T06:22:49.655Z,57.67
2022-12-25T06:25:17.969Z,58.13
2022-12-25T06:27:45.967Z,60.03
2022-12-25T06:30:14.821Z,45.87
2022-12-25T06:32:42.817Z,56.63
2022-12-25T06:35:10.993Z,58.87
2022-12-25T06:37:39.069Z,54.70
2022-12-25T06:40:09.972Z,49.03
2022-12-25T06:42:37.907Z,50.80
2022-12-25T06:45:06.605Z,61.37
2022-12-25T06:47:34.557Z,62.20
2022-12-25T06:50:02.573Z,49.30
2022-12-25T06:52:32.467Z,56.90
2022-12-25T06:55:00.483Z,58.80
2022-12-25T06:57:29.798Z,59.20
2022-12-25T06:59:57.744Z,47.63
2022-12-25T07:02:26.316Z,60.30
2022-12-25T07:04:54.868Z,50.70
2022-12-25T07:07:23.802Z,47.67
2022-12-25T07:09:51.791Z,62.97
2022-12-25T07:12:23.431Z,51.30
2022-12-25T07:14:55.711Z,59.00
2022-12-25T07:17:24.303Z,57.03
2022-12-25T07:19:52.531Z,48.30
2022-12-25T07:22:20.700Z,59.40
2022-12-25T07:24:48.786Z,49.00
2022-12-25T07:27:16.743Z,53.43
2022-12-25T07:29:44.693Z,55.70
2022-12-25T07:32:14.017Z,43.63
2022-12-25T07:34:41.982Z,50.20
2022-12-25T07:37:09.924Z,52.80
2022-12-25T07:39:37.846Z,56.63
2022-12-25T07:42:06.069Z,44.80
2022-12-25T07:44:34.104Z,47.63
2022-12-25T07:47:02.068Z,54.87
2022-12-25T07:49:31.519Z,56.37
2022-12-25T07:51:59.511Z,43.23
2022-12-25T07:54:27.491Z,53.67
2022-12-25T07:56:55.632Z,50.03
2022-12-25T07:59:23.696Z,59.67
2022-12-25T08:01:51.888Z,65.93
2022-12-25T08:04:20.037Z,59.77
2022-12-25T08:06:49.367Z,53.60
2022-12-25T08:09:17.565Z,57.93
2022-12-25T08:11:47.724Z,55.57
2022-12-25T08:14:16.146Z,56.40
2022-12-25T08:16:44.637Z,62.03
2022-12-25T08:19:12.829Z,53.67
2022-12-25T08:21:40.871Z,82.23
2022-12-25T08:24:10.803Z,68.30
2022-12-25T08:26:38.890Z,63.17
2022-12-25T08:29:07.004Z,55.37
2022-12-25T08:31:37.266Z,58.33
2022-12-25T08:34:07.563Z,55.00
2022-12-25T08:36:36.199Z,58.97
2022-12-25T08:39:04.518Z,55.17
2022-12-25T08:41:36.352Z,56.80
2022-12-25T08:44:04.387Z,59.97
2022-12-25T08:46:32.488Z,56.57
2022-12-25T08:49:00.718Z,49.67
2022-12-25T08:51:28.702Z,58.80
2022-12-25T08:54:01.477Z,46.67
2022-12-25T08:56:29.865Z,58.53
2022-12-25T08:58:59.243Z,53.20
2022-12-25T09:01:27.394Z,58.13
2022-12-25T09:03:55.608Z,50.13
2022-12-25T09:06:23.653Z,51.30
2022-12-25T09:08:51.773Z,48.60
2022-12-25T09:11:21.487Z,52.03
2022-12-25T09:13:50.269Z,54.27
2022-12-25T09:16:22.863Z,52.77
2022-12-25T09:18:51.658Z,51.00
2022-12-25T09:21:20.447Z,44.50
2022-12-25T09:23:48.476Z,50.67
2022-12-25T09:26:18.519Z,54.90
2022-12-25T09:28:51.977Z,50.00
2022-12-25T09:31:23.767Z,49.30
2022-12-25T09:33:52.286Z,59.53
2022-12-25T09:36:23.302Z,52.10
2022-12-25T09:38:51.877Z,60.77
2022-12-25T09:41:27.992Z,54.73
2022-12-25T09:44:01.623Z,65.50
2022-12-25T09:46:39.577Z,63.77
2022-12-25T09:49:17.098Z,56.33
2022-12-25T09:51:46.802Z,63.73
2022-12-25T09:54:20.541Z,63.63
2022-12-25T09:56:48.741Z,62.60
2022-12-25T09:59:24.610Z,78.23
2022-12-25T10:02:03.518Z,67.07
2022-12-25T10:05:00.911Z,87.07
2022-12-25T10:07:40.153Z,77.83
2022-12-25T10:10:26.001Z,87.40
2022-12-25T10:13:05.844Z,78.63
2022-12-25T10:15:49.639Z,85.13
2022-12-25T10:18:44.721Z,88.07
2022-12-25T10:21:18.200Z,79.70
2022-12-25T10:23:50.096Z,81.70
2022-12-25T10:26:20.388Z,79.10
2022-12-25T10:28:52.617Z,91.20
2022-12-25T10:31:23.840Z,87.40
2022-12-25T10:33:54.447Z,91.13
2022-12-25T10:36:24.655Z,94.53
2022-12-25T10:38:53.230Z,102.40
2022-12-25T10:41:35.824Z,107.87
2022-12-25T10:44:14.061Z,93.23
2022-12-25T10:46:43.067Z,91.30
2022-12-25T10:49:16.856Z,106.13
2022-12-25T10:51:44.831Z,108.87
2022-12-25T10:54:22.831Z,90.40
2022-12-25T10:56:58.523Z,86.83
2022-12-25T10:59:27.823Z,85.57
2022-12-25T11:01:57.051Z,91.10
2022-12-25T11:04:29.494Z,102.47
2022-12-25T11:06:59.768Z,83.40
2022-12-25T11:09:28.240Z,97.37
2022-12-25T11:11:56.672Z,89.17
2022-12-25T11:14:25.534Z,91.57
2022-12-25T11:16:53.496Z,112.20
2022-12-25T11:19:29.211Z,131.70
2022-12-25T11:21:58.758Z,102.57
2022-12-25T11:24:28.914Z,133.13
2022-12-25T11:26:59.090Z,121.93
2022-12-25T11:29:35.137Z,109.60
2022-12-25T11:32:05.104Z,112.67
2022-12-25T11:34:39.793Z,90.83
2022-12-25T11:37:16.323Z,99.67
2022-12-25T11:39:44.376Z,98.60
2022-12-25T11:42:19.343Z,110.77
2022-12-25T11:44:53.427Z,83.10
2022-12-25T11:47:25.775Z,110.10
2022-12-25T11:50:01.168Z,109.43
2022-12-25T11:52:34.344Z,85.87
2022-12-25T11:55:08.494Z,99.37
2022-12-25T11:57:38.800Z,90.47
2022-12-25T12:00:10.341Z,104.53
2022-12-25T12:02:44.280Z,99.33
2022-12-25T12:05:19.104Z,92.67
2022-12-25T12:08:01.840Z,92.70
2022-12-25T12:10:39.029Z,79.23
2022-12-25T12:13:24.648Z,100.90
2022-12-25T12:15:52.756Z,113.73
2022-12-25T12:18:23.375Z,109.57
2022-12-25T12:21:09.602Z,95.80
2022-12-25T12:23:50.840Z,94.93
2022-12-25T12:26:21.311Z,92.23
2022-12-25T12:28:51.373Z,94.87
2022-12-25T12:31:19.744Z,92.07
2022-12-25T12:33:54.198Z,98.30
2022-12-25T12:36:35.681Z,109.70
2022-12-25T12:39:06.020Z,94.17
2022-12-25T12:41:47.252Z,92.47
2022-12-25T12:44:17.115Z,89.83
2022-12-25T12:46:53.561Z,119.73
2022-12-25T12:49:26.098Z,91.70
2022-12-25T12:52:07.750Z,93.97
2022-12-25T12:54:55.856Z,143.87
2022-12-25T12:57:25.360Z,98.90
2022-12-25T12:59:53.585Z,127.97
2022-12-25T13:02:59.096Z,119.87
2022-12-25T13:05:36.314Z,131.00
2022-12-25T13:08:18.383Z,126.20
2022-12-25T13:10:50.267Z,118.33
2022-12-25T13:13:22.958Z,130.10
2022-12-25T13:15:52.316Z,167.73
2022-12-25T13:18:21.529Z,69.30
2022-12-25T13:20:56.170Z,87.53
2022-12-25T13:23:28.876Z,87.30
2022-12-25T13:25:58.582Z,82.10
2022-12-25T13:28:28.306Z,85.90
2022-12-25T13:31:03.741Z,88.87
2022-12-25T13:33:31.890Z,85.50
2022-12-25T13:36:00.173Z,78.43
2022-12-25T13:38:30.120Z,99.97
2022-12-25T13:41:16.592Z,93.10
2022-12-25T13:43:46.160Z,97.17
2022-12-25T13:46:14.854Z,93.00
2022-12-25T13:48:43.464Z,100.23
2022-12-25T13:51:16.796Z,82.50
2022-12-25T13:53:46.297Z,95.07
2022-12-25T13:56:16.147Z,79.43
2022-12-25T13:58:46.326Z,93.87
2022-12-25T14:01:18.528Z,78.63
2022-12-25T14:03:48.426Z,83.20
2022-12-25T14:06:19.939Z,80.20
2022-12-25T14:08:50.737Z,85.17
2022-12-25T14:11:21.511Z,93.60
2022-12-25T14:13:52.443Z,85.67
2022-12-25T14:16:21.905Z,79.80
2022-12-25T14:18:54.703Z,97.87
2022-12-25T14:21:32.512Z,93.93
2022-12-25T14:24:01.841Z,79.07
2022-12-25T14:26:32.819Z,91.20
2022-12-25T14:29:15.703Z,103.17
2022-12-25T14:31:46.507Z,84.83
2022-12-25T14:34:19.597Z,105.13
2022-12-25T14:36:48.105Z,100.73
2022-12-25T14:39:30.939Z,112.70
2022-12-25T14:41:59.232Z,112.70
2022-12-25T14:44:33.423Z,96.83
2022-12-25T14:47:05.872Z,101.53
2022-12-25T14:49:34.030Z,81.27
2022-12-25T14:52:19.191Z,98.67
2022-12-25T14:54:50.754Z,82.30
2022-12-25T14:57:23.331Z,84.73
2022-12-25T15:00:01.464Z,81.93
2022-12-25T15:02:45.072Z,84.87
2022-12-25T15:05:34.945Z,73.67
2022-12-25T15:08:23.934Z,75.20
2022-12-25T15:11:02.529Z,74.83
2022-12-25T15:13:32.229Z,79.13
2022-12-25T15:16:04.892Z,61.00
2022-12-25T15:18:37.303Z,59.80
2022-12-25T15:21:05.420Z,58.27
2022-12-25T15:23:33.386Z,55.23
2022-12-25T15:26:02.692Z,57.13
2022-12-25T15:28:30.611Z,55.93
2022-12-25T15:30:58.619Z,50.20
2022-12-25T15:33:26.589Z,61.00
2022-12-25T15:35:54.541Z,52.73
2022-12-25T15:38:22.503Z,56.97
2022-12-25T15:40:50.484Z,73.77
2022-12-25T15:43:40.481Z,71.73
2022-12-25T15:46:09.080Z,119.63
2022-12-25T15:48:37.054Z,67.53
2022-12-25T15:51:05.226Z,68.70
2022-12-25T15:53:33.138Z,62.23
2022-12-25T15:56:01.125Z,58.77
2022-12-25T15:58:30.405Z,50.57
2022-12-25T16:00:58.348Z,57.73
2022-12-25T16:03:26.312Z,49.90
2022-12-25T16:05:54.731Z,43.53
2022-12-25T16:08:22.917Z,56.40
2022-12-25T16:10:51.118Z,55.23
2022-12-25T16:13:19.045Z,52.03
2022-12-25T16:15:48.412Z,62.77
2022-12-25T16:18:16.463Z,74.60
2022-12-25T16:20:44.466Z,83.23
2022-12-25T16:23:12.438Z,73.70
2022-12-25T16:25:40.359Z,70.33
2022-12-25T16:28:10.328Z,72.27
2022-12-25T16:30:38.418Z,66.60
2022-12-25T16:33:08.126Z,71.37
2022-12-25T16:35:36.069Z,77.23
2022-12-25T16:38:04.196Z,70.23
2022-12-25T16:40:33.043Z,70.17
2022-12-25T16:43:01.217Z,57.33
2022-12-25T16:45:29.398Z,65.27
2022-12-25T16:47:57.612Z,73.77
2022-12-25T16:50:26.958Z,69.37
2022-12-25T16:52:54.935Z,66.40
2022-12-25T16:55:29.445Z,81.87
2022-12-25T16:57:58.160Z,76.60
2022-12-25T17:00:26.373Z,133.47
2022-12-25T17:02:55.902Z,113.20
2022-12-25T17:05:24.306Z,100.53
2022-12-25T17:07:53.897Z,157.93
2022-12-25T17:10:22.198Z,73.13
2022-12-25T17:12:50.187Z,79.47
2022-12-25T17:15:18.190Z,61.97
2022-12-25T17:17:46.273Z,61.03
2022-12-25T17:20:14.415Z,64.50
2022-12-25T17:22:42.332Z,61.70
2022-12-25T17:25:11.797Z,74.63
2022-12-25T17:27:39.726Z,55.30
2022-12-25T17:30:09.278Z,91.83
2022-12-25T17:32:37.207Z,65.93
2022-12-25T17:35:05.617Z,75.70
2022-12-25T17:37:34.908Z,60.10
2022-12-25T17:40:02.848Z,58.07
2022-12-25T17:42:32.187Z,62.40
2022-12-25T17:45:00.139Z,56.03
2022-12-25T17:47:28.130Z,59.10
2022-12-25T17:49:56.076Z,57.20
2022-12-25T17:52:24.059Z,54.33
2022-12-25T17:54:52.026Z,45.60
2022-12-25T17:57:19.966Z,52.37
2022-12-25T17:59:49.915Z,57.40
2022-12-25T18:02:17.985Z,48.07
2022-12-25T18:04:47.285Z,46.00
2022-12-25T18:07:15.944Z,50.63
2022-12-25T18:09:43.874Z,57.43
2022-12-25T18:12:11.869Z,47.83
2022-12-25T18:14:39.918Z,64.57
2022-12-25T18:17:09.385Z,63.93
2022-12-25T18:19:37.359Z,58.20
2022-12-25T18:22:05.301Z,49.73
2022-12-25T18:24:33.256Z,50.90
2022-12-25T18:27:01.280Z,62.37
2022-12-25T18:29:29.205Z,55.13
2022-12-25T18:31:57.705Z,65.20
2022-12-25T18:34:27.348Z,62.23
2022-12-25T18:37:02.679Z,54.23
2022-12-25T18:39:31.130Z,56.33
2022-12-25T18:42:16.743Z,63.73
2022-12-25T18:44:46.122Z,60.83
2022-12-25T18:47:14.083Z,64.40
2022-12-25T18:49:43.396Z,65.60
2022-12-25T18:52:49.658Z,69.43
2022-12-25T18:54:59.292Z,61.83
2022-12-25T18:57:27.261Z,59.70
2022-12-25T18:59:55.166Z,56.47
2022-12-25T19:02:23.169Z,54.17
2022-12-25T19:04:53.132Z,62.00
2022-12-25T19:07:22.647Z,57.50
2022-12-25T19:09:51.187Z,48.10
2022-12-25T19:12:19.309Z,52.63
2022-12-25T19:14:48.526Z,61.50
2022-12-25T19:17:17.118Z,54.63
2022-12-25T19:19:45.227Z,59.77
2022-12-25T19:22:15.218Z,62.07
2022-12-25T19:24:44.381Z,66.80
2022-12-25T19:27:14.054Z,65.00
2022-12-25T19:29:45.098Z,309.20
2022-12-25T19:32:13.180Z,77.97
2022-12-25T19:34:41.947Z,62.83
2022-12-25T19:37:09.978Z,58.83
2022-12-25T19:39:41.268Z,57.77
2022-12-25T19:42:09.212Z,53.10
2022-12-25T19:44:37.169Z,60.80
2022-12-25T19:47:05.182Z,61.07
2022-12-25T19:49:33.084Z,54.90
2022-12-25T19:52:01.618Z,55.93
2022-12-25T19:54:29.760Z,50.77
2022-12-25T19:56:59.412Z,54.03
2022-12-25T19:59:27.323Z,55.60
2022-12-25T20:01:55.520Z,53.03
2022-12-25T20:04:23.661Z,59.50
2022-12-25T20:06:51.616Z,56.50
2022-12-25T20:09:21.448Z,59.60
2022-12-25T20:11:50.055Z,58.20
2022-12-25T20:14:19.589Z,56.43
2022-12-25T20:16:47.770Z,55.83
2022-12-25T20:19:16.417Z,62.07
2022-12-25T20:21:44.389Z,63.50
2022-12-25T20:24:12.349Z,59.83
2022-12-25T20:26:40.803Z,51.53
2022-12-25T20:29:08.798Z,62.40
2022-12-25T20:31:38.156Z,55.60
2022-12-25T20:34:08.091Z,62.60
2022-12-25T20:36:37.560Z,53.47
2022-12-25T20:39:09.349Z,51.40
2022-12-25T20:41:37.895Z,59.33
2022-12-25T20:44:06.720Z,65.63
2022-12-25T20:46:34.808Z,52.60
2022-12-25T20:49:04.612Z,51.73
2022-12-25T20:51:32.526Z,54.80
2022-12-25T20:54:01.064Z,50.60
2022-12-25T20:56:30.356Z,61.03
2022-12-25T20:59:00.708Z,50.23
2022-12-25T21:01:30.918Z,43.33
2022-12-25T21:04:00.300Z,57.13
2022-12-25T21:06:32.146Z,49.80
2022-12-25T21:09:00.136Z,59.97
2022-12-25T21:11:30.454Z,59.43
2022-12-25T21:13:59.047Z,48.47
2022-12-25T21:16:28.390Z,65.90
2022-12-25T21:18:56.401Z,54.07
2022-12-25T21:21:25.684Z,48.77
2022-12-25T21:23:56.736Z,56.50
2022-12-25T21:26:27.372Z,49.87
2022-12-25T21:28:57.642Z,51.47
2022-12-25T21:31:26.272Z,43.73
2022-12-25T21:33:54.353Z,47.50
2022-12-25T21:36:26.794Z,50.23
2022-12-25T21:38:58.511Z,49.20
2022-12-25T21:41:27.371Z,47.37
2022-12-25T21:43:56.039Z,53.60
2022-12-25T21:46:24.917Z,64.53
2022-12-25T21:48:53.273Z,59.53
2022-12-25T21:51:41.194Z,65.93
2022-12-25T21:54:11.286Z,64.47
2022-12-25T21:56:44.627Z,68.43
2022-12-25T21:59:15.564Z,70.73
2022-12-25T22:01:44.418Z,66.77
2022-12-25T22:04:15.042Z,65.80
2022-12-25T22:07:01.344Z,64.00
2022-12-25T22:09:31.492Z,63.57
2022-12-25T22:12:17.091Z,61.53
2022-12-25T22:14:55.311Z,57.07
2022-12-25T22:17:44.013Z,54.13
2022-12-25T22:20:13.920Z,57.23
2022-12-25T22:22:41.897Z,53.97
2022-12-25T22:25:12.273Z,53.57
2022-12-25T22:27:41.864Z,55.50
2022-12-25T22:30:12.275Z,57.53
2022-12-25T22:32:40.327Z,52.20
2022-12-25T22:35:09.003Z,62.10
2022-12-25T22:37:37.296Z,43.83
2022-12-25T22:40:06.412Z,50.27
2022-12-25T22:42:35.791Z,68.57
2022-12-25T22:45:04.112Z,68.43
2022-12-25T22:47:32.154Z,62.87
2022-12-25T22:50:00.138Z,53.00
2022-12-25T22:52:28.239Z,48.27
2022-12-25T22:54:56.370Z,62.77
2022-12-25T22:57:24.330Z,59.57
2022-12-25T22:59:54.400Z,43.07
2022-12-25T23:02:22.583Z,90.70
2022-12-25T23:04:50.745Z,54.47
2022-12-25T23:07:18.805Z,65.20
2022-12-25T23:09:46.784Z,74.37
2022-12-25T23:12:28.703Z,72.70
2022-12-25T23:14:58.268Z,97.53
2022-12-25T23:17:43.940Z,98.97
2022-12-25T23:20:32.959Z,66.10
2022-12-25T23:23:18.345Z,56.07
2022-12-25T23:26:04.035Z,54.17
2022-12-25T23:28:54.983Z,52.43
2022-12-25T23:31:28.140Z,52.10
2022-12-25T23:33:56.139Z,44.90
2022-12-25T23:36:24.366Z,57.70
2022-12-25T23:38:52.409Z,52.70
2022-12-25T23:41:20.407Z,59.73
2022-12-25T23:43:48.394Z,50.80
2022-12-25T23:46:16.435Z,56.83
2022-12-25T23:48:45.793Z,67.60
2022-12-25T23:51:13.733Z,54.77
2022-12-25T23:53:41.693Z,59.57
2022-12-25T23:56:10.556Z,56.57
2022-12-25T23:58:38.855Z,45.20
